createdAt,value
2022-08-29T01:41:18.186Z,18.73310667034757
2022-08-29T01:44:20.190Z,18.783208964005553
2022-08-29T01:47:17.296Z,18.60720872121319
2022-08-29T01:51:16.315Z,18.68685842383502
2022-08-29T01:54:17.464Z,18.652814590771232
2022-08-29T01:57:17.050Z,18.620697778835893
2022-08-29T02:01:21.941Z,18.714478901555776
2022-08-29T02:04:16.871Z,18.653456927125898
2022-08-29T02:07:20.663Z,18.65152991807554
2022-08-29T02:11:18.119Z,18.650887581734516
2022-08-29T02:14:19.672Z,18.620697778835893
2022-08-29T02:17:16.218Z,18.60463937713148
2022-08-29T02:21:22.921Z,18.550683168222985
2022-08-29T02:24:25.073Z,18.62840581266355
2022-08-29T02:27:17.031Z,18.60463937713148
2022-08-29T02:31:18.310Z,18.575091925421383
2022-08-29T02:34:17.363Z,18.589223314169157
2022-08-29T02:37:16.981Z,18.532697772383926
2022-08-29T02:41:17.001Z,18.45304820509491
2022-08-29T02:44:17.072Z,18.614916753894885
2022-08-29T02:47:16.853Z,18.598858353213654
2022-08-29T02:51:19.652Z,18.53590944995085
2022-08-29T02:54:16.257Z,18.593719665595927
2022-08-29T02:57:16.285Z,18.616201426072166
2022-08-29T03:01:16.398Z,18.555179517739816
2022-08-29T03:04:16.722Z,18.48644962802582
2022-08-29T03:07:16.942Z,18.56224521028789
2022-08-29T03:11:17.668Z,18.57766126866636
2022-08-29T03:14:16.556Z,18.48516495768572
2022-08-29T03:17:16.623Z,18.540405798735538
2022-08-29T03:51:17.765Z,18.571237910690343
2022-08-29T03:54:16.895Z,18.511500703293496
2022-08-29T03:57:16.846Z,18.534624778910437
2022-08-29T04:01:18.504Z,18.47809927114031
2022-08-29T04:05:08.784Z,18.439559172396912
2022-08-29T04:07:17.763Z,18.413865782329594
2022-08-29T04:11:18.841Z,18.46974891502332
2022-08-29T04:14:17.593Z,18.508289026590592
2022-08-29T04:17:17.534Z,18.388172399538234
2022-08-29T04:21:17.442Z,18.33100464893223
2022-08-29T04:24:17.298Z,18.32715064456943
2022-08-29T04:27:17.279Z,18.357982684055695
2022-08-29T04:31:20.571Z,18.383676058297805
2022-08-29T04:34:16.752Z,18.314303964542432
2022-08-29T04:37:16.157Z,18.39331107551443
2022-08-29T04:41:16.151Z,18.43827450272074
2022-08-29T04:44:16.469Z,18.337427989900696
2022-08-29T04:47:16.545Z,18.338070324022556
2022-08-29T04:51:16.140Z,18.39138407198925
2022-08-29T04:54:16.380Z,18.29696094939136
2022-08-29T04:57:16.569Z,18.341281994700058
2022-08-29T05:01:18.557Z,18.39395341003192
2022-08-29T05:04:16.494Z,18.39716508268757
2022-08-29T05:07:16.705Z,18.35220167585394
2022-08-29T05:11:22.699Z,18.382391389412895
2022-08-29T05:14:16.826Z,18.354771012787022
2022-08-29T05:17:16.779Z,18.384960727200905
2022-08-29T05:21:25.829Z,18.27447926801842
2022-08-29T05:24:16.397Z,18.23915092283023
2022-08-29T05:27:18.643Z,18.278975603847357
2022-08-29T05:31:16.950Z,18.369544701564244
2022-08-29T05:34:33.836Z,18.359267352594998
2022-08-29T05:37:19.299Z,18.3637636926258
2022-08-29T05:41:16.894Z,18.39395341003192
2022-08-29T05:44:16.981Z,18.420289129164303
2022-08-29T05:47:18.127Z,18.51278537400649
2022-08-29T05:51:18.528Z,18.498011661905274
2022-08-29T05:54:16.950Z,18.555179517739816
2022-08-29T05:57:19.583Z,18.514712380110087
2022-08-29T06:01:23.668Z,18.508931361922077
2022-08-29T06:04:17.281Z,18.544902147743052
2022-08-29T06:07:16.670Z,18.618128434372192
2022-08-29T06:11:19.058Z,18.608493393281332
2022-08-29T06:14:17.123Z,18.65152991807554
2022-08-29T06:17:17.407Z,18.682362067792564
2022-08-29T06:21:17.172Z,18.792844023650105
2022-08-29T06:24:17.384Z,18.79027467431151
2022-08-29T06:27:17.020Z,19.06904950187345
2022-08-29T06:31:18.116Z,19.213575959291575
2022-08-29T06:34:16.126Z,19.241196597356247
2022-08-29T06:37:16.251Z,19.247620002762414
2022-08-29T06:41:17.104Z,19.28808746727818
2022-08-29T06:44:17.881Z,19.30607301285645
2022-08-29T06:47:17.046Z,19.360029670982566
2022-08-29T06:51:16.753Z,19.52575389299536
2022-08-29T06:54:18.080Z,19.55851336806227
2022-08-29T06:57:16.658Z,19.604119715791693
2022-08-29T07:01:18.689Z,19.693405448843624
2022-08-29T07:04:16.478Z,19.745435305024966
2022-08-29T07:07:16.180Z,19.832151798296035
2022-08-29T07:11:16.287Z,19.944562190701344
2022-08-29T07:14:16.089Z,20.03770233562427
2022-08-29T07:17:25.641Z,20.085878310170028
2022-08-29T07:21:20.584Z,20.16424461674478
2022-08-29T07:24:16.461Z,20.247749772008774
2022-08-29T07:27:16.576Z,20.325473870194763
2022-08-29T07:31:17.249Z,20.459082392920756
2022-08-29T07:34:20.601Z,20.563785363133594
2022-08-29T07:37:17.317Z,20.64086738161068
2022-08-29T07:41:18.669Z,20.8143021626086
2022-08-29T07:44:18.055Z,20.921574952346056
2022-08-29T07:47:16.791Z,21.015358453267254
2022-08-29T07:51:19.357Z,21.110426758615358
2022-08-29T07:54:17.141Z,21.212561062511032
2022-08-29T07:57:17.198Z,21.276154177729403
2022-08-29T08:01:21.545Z,21.37957337947528
2022-08-29T08:04:16.227Z,21.457298447191715
2022-08-29T08:07:17.649Z,21.554936643136898
2022-08-29T08:11:17.366Z,21.67248803159391
2022-08-29T08:14:16.408Z,21.78168891141622
2022-08-29T08:17:16.910Z,21.8504212972839
2022-08-29T08:21:16.079Z,21.985316785396208
2022-08-29T08:24:19.345Z,22.048910442205035
2022-08-29T08:27:16.038Z,22.138198581025062
2022-08-29T08:31:18.057Z,22.30071606639185
2022-08-29T08:34:18.416Z,22.402209347197733
2022-08-29T08:37:24.181Z,22.49214019720248
2022-08-29T08:41:28.755Z,22.636029742601476
2022-08-29T08:44:42.335Z,22.692557840721655
2022-08-29T08:47:23.327Z,22.764502743806315
2022-08-29T08:51:22.743Z,22.886552263434805
2022-08-29T08:54:22.502Z,22.997039338565173
2022-08-29T08:57:16.199Z,23.060633704438807
2022-08-29T09:21:39.958Z,24.179002513329124
2022-08-29T10:01:18.984Z,26.327131525104143
2022-08-29T10:04:37.531Z,26.55132614973736
2022-08-29T10:11:22.303Z,26.932907959261502
2022-08-29T10:14:28.688Z,27.12048748417292
2022-08-29T10:18:48.377Z,27.245754848583694
2022-08-29T10:41:30.709Z,28.76567931407999
2022-08-29T10:44:28.386Z,28.9198573514318
2022-08-29T10:47:27.312Z,29.135707043774254
2022-08-29T11:01:21.660Z,29.98497778132305
2022-08-29T11:04:22.647Z,30.08262515316028
2022-08-29T11:07:22.669Z,30.28370198004559
2022-08-29T11:11:19.293Z,30.489918613486317
2022-08-29T11:14:23.642Z,30.59077863287566
2022-08-29T11:17:18.273Z,30.722475005270915
2022-08-29T11:21:30.885Z,30.985225899727084
2022-08-29T11:24:32.949Z,31.141977406865045
2022-08-29T11:27:31.412Z,31.212644158458353
2022-08-29T11:31:23.978Z,31.44327512148966
2022-08-29T11:41:27.203Z,31.85764141607542
2022-08-29T11:44:25.644Z,32.041376533512086
2022-08-29T11:47:40.852Z,32.04394625807181
2022-08-29T11:51:36.255Z,32.21611796931975
2022-08-29T11:55:15.814Z,32.321476938785054
2022-08-29T11:57:55.167Z,32.44546661439172
2022-08-29T12:01:57.486Z,32.57973541787105
2022-08-29T12:04:50.340Z,32.73841698716942
2022-08-29T12:07:17.012Z,32.782745086469006
2022-08-29T12:11:16.136Z,32.83799463184696
2022-08-29T12:14:29.193Z,32.90673539223726
2022-08-29T12:18:01.988Z,32.99153714968425
2022-08-29T12:21:48.996Z,33.1508618779525
2022-08-29T12:24:39.779Z,33.30890200569347
2022-08-29T12:27:57.723Z,33.44509940972066
2022-08-29T12:32:39.850Z,33.56587841069204
2022-08-29T12:34:32.541Z,33.5967156281863
2022-08-29T12:37:30.603Z,33.800370015137375
2022-08-29T12:41:33.646Z,33.96933283442786
2022-08-29T12:44:24.192Z,33.97704217208893
2022-08-29T12:47:25.276Z,34.1389384142386
2022-08-29T12:51:35.605Z,34.23337802218739
2022-08-29T13:01:25.654Z,34.54753497617867
2022-08-29T13:04:20.601Z,34.56423864834951
2022-08-29T13:21:23.792Z,34.870044882175804
2022-08-29T13:41:27.587Z,35.19255593415446
2022-08-29T13:44:18.213Z,35.22660597265967
2022-08-29T13:47:21.004Z,35.217611621624386
2022-08-29T13:51:16.178Z,35.325543892873974
2022-08-29T14:02:07.165Z,35.48680008487945
2022-08-29T14:11:16.490Z,35.57610144594255
2022-08-29T14:21:17.341Z,35.64420182350004
2022-08-29T14:31:16.075Z,35.63263760484151
2022-08-29T14:41:17.285Z,35.6230007570849
2022-08-29T14:51:16.267Z,35.1585059084231
2022-08-29T14:54:18.198Z,35.04864647853401
2022-08-29T14:57:16.952Z,34.86169301756636
2022-08-29T15:01:16.515Z,34.772392359397145
2022-08-29T15:11:16.405Z,34.80708469098327
2022-08-29T15:21:17.005Z,34.20189814195264
2022-08-29T15:31:16.578Z,33.53182899521344
2022-08-29T15:34:17.068Z,33.267143408604895
2022-08-29T15:37:16.800Z,33.164995536708105
2022-08-29T15:41:15.576Z,32.93500263591568
2022-08-29T15:44:21.289Z,32.76282956091681
2022-08-29T15:47:15.864Z,32.58872950749937
2022-08-29T15:51:16.656Z,32.29385231910719
2022-08-29T15:54:17.224Z,32.29449475202746
2022-08-29T15:57:16.887Z,32.24888202598895
2022-08-29T16:01:17.133Z,32.01310956815723
2022-08-29T16:04:18.940Z,32.032382498126026
2022-08-29T16:07:17.361Z,31.997048796309628
2022-08-29T16:11:16.402Z,31.998976088781273
2022-08-29T16:17:16.502Z,31.969424275380153
2022-08-29T16:21:16.440Z,31.998976088781273
2022-08-29T16:24:16.460Z,31.920599561277776
2022-08-29T16:27:17.378Z,31.901326655046795
2022-08-29T16:31:17.472Z,31.83001693757842
2022-08-29T16:34:16.568Z,31.706028102772326
2022-08-29T16:37:16.823Z,31.719519107673204
2022-08-29T16:41:18.629Z,31.639857964917702
2022-08-29T16:44:16.465Z,31.570475736262686
2022-08-29T16:47:16.245Z,31.521008809333217
2022-08-29T16:51:19.070Z,31.464475211571333
2022-08-29T16:54:16.557Z,31.472184336465215
2022-08-29T16:57:16.344Z,31.468972201013184
2022-08-29T17:01:17.403Z,31.32057166708437
2022-08-29T17:04:19.273Z,31.203650205199665
2022-08-29T17:07:16.957Z,31.11306829707255
2022-08-29T17:21:16.922Z,30.67043885480416
2022-08-29T17:24:16.714Z,30.59142105374058
2022-08-29T17:27:21.157Z,30.462936971252294
2022-08-29T17:31:16.892Z,30.288198910979645
2022-08-29T17:34:16.518Z,30.221387388611127
2022-08-29T17:37:16.466Z,30.178345376212384
2022-08-29T17:41:18.935Z,30.022880367125982
2022-08-29T17:44:16.413Z,29.94322071359529
2022-08-29T17:47:16.580Z,29.89632433736051
2022-08-29T18:01:17.061Z,29.48389423665294
2022-08-29T18:04:16.581Z,29.489033541017214
2022-08-29T18:07:17.569Z,29.375326499971926
2022-08-29T18:11:16.719Z,29.198663300747377
2022-08-29T18:14:21.808Z,29.074035650718088
2022-08-29T18:17:16.155Z,29.0187883966938
2022-08-29T18:21:18.450Z,28.851762019305262
2022-08-29T18:24:16.821Z,28.833774581614215
2022-08-29T18:27:16.107Z,28.72328039972863
2022-08-29T18:31:18.696Z,28.622422455801644
2022-08-29T18:34:17.261Z,28.466960112098604
2022-08-29T18:37:16.806Z,28.386659419039006
2022-08-29T18:41:16.219Z,28.37252650441378
2022-08-29T18:44:16.571Z,28.319849296564733
2022-08-29T18:47:16.598Z,28.26074807537598
2022-08-29T18:51:17.001Z,28.062887745433635
2022-08-29T18:54:19.238Z,28.114279997452194
2022-08-29T18:57:16.775Z,28.008925912137148
2022-08-29T19:01:27.719Z,27.8264837610056
2022-08-29T19:04:16.135Z,27.84639820333141
2022-08-29T19:07:24.194Z,27.76224365425669
2022-08-29T19:11:16.391Z,27.724984413178845
2022-08-29T19:14:16.563Z,27.734620422335865
2022-08-29T19:17:17.674Z,27.768667662885218
2022-08-29T19:21:15.915Z,27.50335648496548
2022-08-29T19:24:16.286Z,27.439759005509494
2022-08-29T19:27:39.665Z,27.475733331847824
2022-08-29T19:31:16.383Z,27.413420668483013
2022-08-29T19:34:16.313Z,27.383870348235725
2022-08-29T19:37:16.289Z,27.306140203965423
2022-08-29T19:41:16.118Z,27.1885815172227
2022-08-29T19:44:16.263Z,27.12112988047238
2022-08-29T19:47:16.084Z,27.011922574888104
2022-08-29T19:51:18.132Z,26.861602145680898
2022-08-29T19:54:16.666Z,26.88087398166399
2022-08-29T19:57:16.317Z,26.875734825001654
2022-08-29T20:01:16.766Z,26.73376573727619
2022-08-29T20:04:16.483Z,26.749825577687535
2022-08-29T20:07:16.426Z,26.68687101954138
2022-08-29T20:11:18.931Z,26.55839246496189
2022-08-29T20:14:16.956Z,26.519206542015308
2022-08-29T20:17:16.874Z,26.444046704372248
2022-08-29T20:21:17.372Z,26.31749566539984
2022-08-29T20:24:17.511Z,26.31749566539984
2022-08-29T20:27:17.126Z,26.282806578936288
2022-08-29T20:31:16.865Z,26.14469275507372
2022-08-29T20:34:17.274Z,25.97189017380733
2022-08-29T20:37:17.127Z,26.016857356590116
2022-08-29T20:41:21.127Z,25.8736048375883
2022-08-29T20:44:18.754Z,25.877459162493416
2022-08-29T20:47:19.722Z,25.87424722506112
2022-08-29T20:51:16.098Z,25.783028249445852
2022-08-29T20:54:21.295Z,25.643630414544987
2022-08-29T20:57:16.546Z,25.606372043326065
2022-08-29T21:01:15.826Z,25.52607388150391
2022-08-29T21:11:16.360Z,25.528643421581727
2022-08-29T21:14:16.267Z,25.341067187113005
2022-08-29T21:17:17.120Z,25.29738510597999
2022-08-29T21:21:16.025Z,25.35969631634516
2022-08-29T21:24:17.165Z,25.273616923608735
2022-08-29T21:27:16.337Z,25.143213222996927
2022-08-29T21:31:16.817Z,25.141928458405893
2022-08-29T21:34:17.308Z,25.003173989639617
2022-08-29T21:37:16.552Z,25.017306379531874
2022-08-29T21:41:15.969Z,24.9601344521624
2022-08-29T21:44:17.696Z,24.91195588964947
2022-08-29T21:47:17.950Z,24.963346357239423
2022-08-29T21:51:19.465Z,24.81881074132334
2022-08-29T21:54:17.485Z,24.880479242622915
2022-08-29T22:01:16.717Z,24.70510955192149
2022-08-29T22:04:19.119Z,24.71602999895631
2022-08-29T22:07:17.147Z,24.684553419891746
2022-08-29T22:11:20.864Z,24.690977210650818
2022-08-29T22:14:16.802Z,24.60425607377265
2022-08-29T22:17:16.670Z,24.620957915912822
2022-08-29T22:21:17.123Z,24.543230138243235
2022-08-29T22:24:17.960Z,24.464860049652998
2022-08-29T22:27:16.931Z,24.48091948852243
2022-08-29T22:31:17.736Z,24.366576345695012
2022-08-29T22:34:18.037Z,24.317755721863158
2022-08-29T22:37:17.077Z,24.356940694174046
2022-08-29T22:41:18.538Z,24.195704277198182
2022-08-29T22:44:59.813Z,24.125685364625316
2022-08-29T22:47:17.603Z,24.038964767987
2022-08-29T22:51:18.698Z,24.10063273930582
2022-08-29T22:54:40.663Z,24.117976863790318
2022-08-29T22:57:17.872Z,24.038322393506313
2022-08-29T23:01:16.362Z,23.975369716458953
2022-08-29T23:04:16.707Z,23.954813749738967
2022-08-29T23:07:17.508Z,23.904708600367666
2022-08-29T23:11:16.830Z,23.89186113062642
2022-08-29T23:14:17.637Z,23.914986577470337
2022-08-29T23:17:17.904Z,23.839828896775817
2022-08-29T23:21:17.640Z,23.769810258806682
2022-08-29T23:24:17.048Z,23.790366183617152
2022-08-29T23:27:17.208Z,23.778161102699322
2022-08-29T23:31:16.860Z,23.726771306316458
2022-08-29T23:34:16.210Z,23.66831544831257
2022-08-29T23:37:16.044Z,23.670242563910232
2022-08-29T23:41:16.492Z,23.62399180086222
2022-08-29T23:44:16.182Z,23.603435913741215
2022-08-29T23:47:16.321Z,23.52378189513047
2022-08-29T23:51:16.729Z,23.52313952429686
2022-08-29T23:54:16.865Z,23.55975466907048
2022-08-29T23:57:16.807Z,23.54305302225339
